createdAt,value
2022-09-05T00:02:28.417Z,85.97
2022-09-05T00:05:23.897Z,86.60
2022-09-05T00:08:25.187Z,87.59
2022-09-05T00:11:41.255Z,88.88
2022-09-05T00:15:16.855Z,90.28
2022-09-05T00:24:17.558Z,88.49
2022-09-05T00:24:28.185Z,89.16
2022-09-05T00:24:50.117Z,89.56
2022-09-05T00:27:52.383Z,90.37
2022-09-05T00:31:07.972Z,92.06
2022-09-05T00:34:00.565Z,92.53
2022-09-05T00:36:55.239Z,92.65
2022-09-05T00:39:42.399Z,92.12
2022-09-05T00:42:36.831Z,92.51
2022-09-05T00:45:30.505Z,92.70
2022-09-05T00:48:36.653Z,92.81
2022-09-05T00:51:47.190Z,92.12
2022-09-05T00:54:45.845Z,92.41
2022-09-05T00:57:51.294Z,90.90
2022-09-05T01:00:52.581Z,91.33
2022-09-05T01:03:40.994Z,92.61
2022-09-05T01:06:33.936Z,92.37
2022-09-05T01:09:37.681Z,91.64
2022-09-05T01:12:35.597Z,90.92
2022-09-05T01:15:40.253Z,91.51
2022-09-05T01:18:41.769Z,91.66
2022-09-05T01:21:37.128Z,92.23
2022-09-05T01:24:41.242Z,90.39
2022-09-05T01:29:14.464Z,89.84
2022-09-05T01:31:03.515Z,89.66
2022-09-05T01:33:54.594Z,90.61
2022-09-05T01:36:51.597Z,89.67
2022-09-05T01:40:11.293Z,90.49
2022-09-05T01:43:17.727Z,91.42
2022-09-05T01:46:25.751Z,90.31
2022-09-05T01:49:16.537Z,91.15
2022-09-05T01:52:35.512Z,91.72
2022-09-05T01:55:36.551Z,91.13
2022-09-05T01:59:12.601Z,91.33
2022-09-05T02:01:58.221Z,91.94
2022-09-05T02:05:07.391Z,90.63
2022-09-05T02:08:06.821Z,89.70
2022-09-05T02:10:55.424Z,91.18
2022-09-05T02:14:09.241Z,90.86
2022-09-05T02:16:56.921Z,89.19
2022-09-05T02:20:03.201Z,91.28
2022-09-05T02:22:58.752Z,92.34
2022-09-05T02:26:01.592Z,91.17
2022-09-05T02:28:55.986Z,89.39
2022-09-05T02:31:42.230Z,88.95
2022-09-05T02:34:41.618Z,88.97
2022-09-05T02:38:38.013Z,89.80
2022-09-05T02:45:18.108Z,87.88
2022-09-05T02:45:21.358Z,89.84
2022-09-05T02:47:22.747Z,87.74
2022-09-05T02:53:57.821Z,87.40
2022-09-05T02:57:41.754Z,87.08
2022-09-05T02:57:46.253Z,87.05
2022-09-05T03:00:03.260Z,87.10
2022-09-05T03:03:02.946Z,87.64
2022-09-05T03:06:13.534Z,87.59
2022-09-05T03:09:17.485Z,87.71
2022-09-05T03:12:28.483Z,87.69
2022-09-05T03:15:34.704Z,87.37
2022-09-05T03:18:51.922Z,87.81
2022-09-05T03:21:41.620Z,88.49
2022-09-05T03:24:33.144Z,88.52
2022-09-05T03:27:49.879Z,89.63
2022-09-05T03:30:48.959Z,88.00
2022-09-05T03:33:37.846Z,87.74
2022-09-05T03:36:37.551Z,88.30
2022-09-05T03:39:32.011Z,90.27
2022-09-05T03:42:38.427Z,91.48
2022-09-05T03:45:37.309Z,91.48
2022-09-05T03:48:30.587Z,92.18
2022-09-05T03:57:04.558Z,92.76
2022-09-05T03:57:27.647Z,93.45
2022-09-05T03:58:16.552Z,92.50
2022-09-05T04:02:59.938Z,91.51
2022-09-05T04:08:10.607Z,89.57
2022-09-05T04:08:15.370Z,89.11
2022-09-05T04:11:10.553Z,89.92
2022-09-05T04:14:03.988Z,88.91
2022-09-05T04:16:52.914Z,88.43
2022-09-05T04:19:41.453Z,89.32
2022-09-05T04:22:38.342Z,91.13
2022-09-05T04:25:41.589Z,90.51
2022-09-05T04:28:41.423Z,89.99
2022-09-05T04:32:00.971Z,90.65
2022-09-05T04:35:34.153Z,91.68
2022-09-05T04:38:36.665Z,90.88
2022-09-05T04:41:39.522Z,91.49
2022-09-05T04:44:38.783Z,92.06
2022-09-05T04:47:49.492Z,90.96
2022-09-05T04:50:54.175Z,91.34
2022-09-05T04:54:01.278Z,91.37
2022-09-05T04:57:11.765Z,90.41
2022-09-05T05:06:05.653Z,90.56
2022-09-05T05:07:34.495Z,88.16
2022-09-05T05:17:54.206Z,87.89
2022-09-05T05:18:14.520Z,88.04
2022-09-05T05:18:39.979Z,87.73
2022-09-05T05:21:28.681Z,88.67
2022-09-05T05:24:22.186Z,88.81
2022-09-05T05:27:29.552Z,89.41
2022-09-05T05:30:36.804Z,88.94
2022-09-05T05:33:52.290Z,88.71
2022-09-05T05:37:19.472Z,88.23
2022-09-05T05:40:17.638Z,88.08
2022-09-05T05:44:01.015Z,87.48
2022-09-05T05:47:07.567Z,86.84
2022-09-05T05:50:23.117Z,86.26
2022-09-05T05:53:33.513Z,85.71
2022-09-05T05:56:49.464Z,85.76
2022-09-05T05:59:41.704Z,85.64
2022-09-05T06:03:24.953Z,85.32
2022-09-05T06:06:11.009Z,85.15
2022-09-05T06:14:50.972Z,85.12
2022-09-05T06:15:03.768Z,84.73
2022-09-05T06:16:33.126Z,84.20
2022-09-05T06:20:42.960Z,84.06
2022-09-05T06:23:10.600Z,83.77
2022-09-05T06:26:46.013Z,83.76
2022-09-05T06:29:59.769Z,83.17
2022-09-05T06:33:14.388Z,82.77
2022-09-05T06:36:42.375Z,82.14
2022-09-05T06:39:34.571Z,81.96
2022-09-05T06:42:42.948Z,81.98
2022-09-05T06:45:49.642Z,81.56
2022-09-05T06:49:28.353Z,81.63
2022-09-05T06:52:27.688Z,80.33
2022-09-05T06:55:20.270Z,80.68
2022-09-05T06:58:35.226Z,80.45
2022-09-05T07:01:53.832Z,80.76
2022-09-05T07:09:34.298Z,79.89
2022-09-05T07:13:33.739Z,79.38
2022-09-05T07:28:29.330Z,78.05
2022-09-05T07:31:41.262Z,77.96
2022-09-05T07:39:25.184Z,76.02
2022-09-05T08:04:39.665Z,71.60
2022-09-05T08:12:09.471Z,71.10
2022-09-05T08:16:10.243Z,68.98
2022-09-05T08:19:46.791Z,70.83
2022-09-05T08:22:56.709Z,69.65
2022-09-05T08:25:57.247Z,70.29
2022-09-05T08:29:05.068Z,67.38
2022-09-05T08:32:33.401Z,69.34
2022-09-05T08:36:23.025Z,65.69
2022-09-05T08:40:11.547Z,65.18
2022-09-05T08:46:37.362Z,64.14
2022-09-05T08:47:06.296Z,67.00
2022-09-05T08:50:37.318Z,65.62
2022-09-05T08:53:46.482Z,63.68
2022-09-05T08:57:25.204Z,60.58
2022-09-05T09:00:19.603Z,60.24
2022-09-05T09:03:53.042Z,61.38
2022-09-05T09:07:45.016Z,61.82
2022-09-05T09:10:32.179Z,56.29
2022-09-05T09:16:39.182Z,59.76
2022-09-05T10:20:16.632Z,36.66
2022-09-05T10:30:03.425Z,36.47
2022-09-05T10:42:25.512Z,38.93
2022-09-05T10:45:46.580Z,38.05
2022-09-05T10:48:41.634Z,40.61
2022-09-05T10:56:10.831Z,42.82
2022-09-05T11:02:22.801Z,42.86
2022-09-05T11:02:39.785Z,41.47
2022-09-05T11:05:42.073Z,41.81
2022-09-05T11:13:38.694Z,38.33
2022-09-05T11:20:40.336Z,36.53
2022-09-05T11:23:57.180Z,38.06
2022-09-05T11:39:51.484Z,36.32
2022-09-05T11:40:06.360Z,36.66
2022-09-05T11:40:59.120Z,33.29
2022-09-05T11:44:26.130Z,35.61
2022-09-05T11:47:40.925Z,32.64
2022-09-05T11:50:52.543Z,35.28
2022-09-05T11:53:38.049Z,36.42
2022-09-05T11:56:32.863Z,35.21
2022-09-05T11:59:33.632Z,33.50
2022-09-05T12:02:26.477Z,33.16
2022-09-05T12:05:48.447Z,34.49
2022-09-05T12:08:47.567Z,35.82
2022-09-05T12:11:46.532Z,37.33
2022-09-05T12:14:35.212Z,37.53
2022-09-05T12:17:41.907Z,37.41
2022-09-05T12:24:48.158Z,38.49
2022-09-05T12:27:38.756Z,38.00
2022-09-05T12:31:09.897Z,37.83
2022-09-05T12:36:05.996Z,38.69
2022-09-05T12:40:54.308Z,39.18
2022-09-05T12:41:41.391Z,38.23
2022-09-05T12:46:41.367Z,40.03
2022-09-05T12:50:32.216Z,40.28
2022-09-05T12:53:48.741Z,40.77
2022-09-05T13:00:28.977Z,40.97
2022-09-05T13:03:02.134Z,40.56
2022-09-05T13:03:30.245Z,41.15
2022-09-05T13:07:11.630Z,41.49
2022-09-05T13:14:05.762Z,42.11
2022-09-05T13:14:56.584Z,42.54
2022-09-05T13:18:07.788Z,43.06
2022-09-05T13:20:56.876Z,43.40
2022-09-05T13:24:03.756Z,43.50
2022-09-05T13:33:31.316Z,44.48
2022-09-05T13:38:05.153Z,44.25
2022-09-05T13:38:12.568Z,44.63
2022-09-05T13:41:00.727Z,44.05
2022-09-05T13:43:47.407Z,44.17
2022-09-05T13:46:35.787Z,43.57
2022-09-05T13:49:29.600Z,43.40
2022-09-05T13:56:24.985Z,42.91
2022-09-05T13:59:15.548Z,43.46
2022-09-05T14:02:34.750Z,43.41
2022-09-05T14:05:37.727Z,43.20
2022-09-05T14:08:43.916Z,43.14
2022-09-05T14:11:45.049Z,43.65
2022-09-05T14:17:54.552Z,44.04
2022-09-05T14:21:17.592Z,43.53
2022-09-05T14:24:27.532Z,44.19
2022-09-05T14:27:36.279Z,44.21
2022-09-05T14:33:19.192Z,44.78
2022-09-05T14:37:41.621Z,45.13
2022-09-05T14:37:51.596Z,45.70
2022-09-05T14:39:56.453Z,45.86
2022-09-05T14:42:45.851Z,45.75
2022-09-05T14:45:20.916Z,46.28
2022-09-05T14:47:54.850Z,46.53
2022-09-05T14:50:46.196Z,46.71
2022-09-05T15:02:09.623Z,47.61
2022-09-05T15:02:44.638Z,48.37
2022-09-05T15:03:00.541Z,48.37
2022-09-05T15:05:58.436Z,48.15
2022-09-05T15:11:24.011Z,47.63
2022-09-05T15:12:26.169Z,47.66
2022-09-05T15:14:18.970Z,47.72
2022-09-05T15:17:06.188Z,47.90
2022-09-05T15:20:06.281Z,48.78
2022-09-05T15:22:43.137Z,48.77
2022-09-05T15:25:23.621Z,48.54
2022-09-05T15:27:57.529Z,48.82
2022-09-05T15:30:35.536Z,49.37
2022-09-05T15:33:15.124Z,49.33
2022-09-05T15:35:47.278Z,49.23
2022-09-05T15:38:25.247Z,49.34
2022-09-05T15:41:09.618Z,49.27
2022-09-05T15:43:58.587Z,49.85
2022-09-05T15:46:41.743Z,50.20
2022-09-05T15:49:11.659Z,50.34
2022-09-05T15:51:42.633Z,51.33
2022-09-05T15:54:32.288Z,51.97
2022-09-05T15:57:18.098Z,52.03
2022-09-05T15:59:57.571Z,52.29
2022-09-05T16:02:40.424Z,52.11
2022-09-05T16:10:28.010Z,52.08
2022-09-05T16:10:39.232Z,52.30
2022-09-05T16:12:06.235Z,52.80
2022-09-05T16:14:39.581Z,53.12
2022-09-05T16:23:17.261Z,53.41
2022-09-05T16:24:24.898Z,54.26
2022-09-05T16:27:10.093Z,54.53
2022-09-05T16:29:46.639Z,55.01
2022-09-05T16:32:24.229Z,56.21
2022-09-05T16:34:56.013Z,56.52
2022-09-05T16:37:45.397Z,56.65
2022-09-05T16:40:19.637Z,57.08
2022-09-05T16:42:50.465Z,57.75
2022-09-05T16:45:35.439Z,57.87
2022-09-05T16:48:09.538Z,58.08
2022-09-05T16:51:15.262Z,59.02
2022-09-05T16:53:58.840Z,58.94
2022-09-05T16:56:37.957Z,59.53
2022-09-05T16:59:12.656Z,59.99
2022-09-05T17:02:05.771Z,60.61
2022-09-05T17:05:04.303Z,60.70
2022-09-05T17:07:42.332Z,60.08
2022-09-05T17:10:24.655Z,61.10
2022-09-05T17:13:00.374Z,61.98
2022-09-05T17:15:51.652Z,62.49
2022-09-05T17:18:32.056Z,62.33
2022-09-05T17:21:03.239Z,63.31
2022-09-05T17:28:46.042Z,62.12
2022-09-05T17:29:30.257Z,62.13
2022-09-05T17:33:21.510Z,63.90
2022-09-05T17:36:11.734Z,64.68
2022-09-05T17:38:51.032Z,67.01
2022-09-05T17:41:43.537Z,67.02
2022-09-05T17:44:20.862Z,67.64
2022-09-05T17:47:14.578Z,68.50
2022-09-05T17:50:10.390Z,67.84
2022-09-05T17:52:56.595Z,67.61
2022-09-05T17:55:50.245Z,67.09
2022-09-05T17:58:50.167Z,67.30
2022-09-05T18:01:27.162Z,66.52
2022-09-05T18:04:18.038Z,68.98
2022-09-05T18:06:59.422Z,69.92
2022-09-05T18:09:48.044Z,70.68
2022-09-05T18:13:13.055Z,68.89
2022-09-05T18:15:25.627Z,69.02
2022-09-05T18:18:03.910Z,67.90
2022-09-05T18:20:46.703Z,67.27
2022-09-05T18:23:39.117Z,68.89
2022-09-05T18:26:26.094Z,69.76
2022-09-05T18:29:03.250Z,69.88
2022-09-05T18:31:41.898Z,69.74
2022-09-05T18:34:31.344Z,71.35
2022-09-05T18:37:23.045Z,71.89
2022-09-05T18:40:15.360Z,71.55
2022-09-05T18:43:20.720Z,70.60
2022-09-05T18:46:08.402Z,71.39
2022-09-05T18:50:22.103Z,72.16
2022-09-05T18:52:07.556Z,71.27
2022-09-05T18:54:37.325Z,70.96
2022-09-05T18:57:26.505Z,70.19
2022-09-05T19:00:09.421Z,70.64
2022-09-05T19:02:58.886Z,72.07
2022-09-05T19:05:33.485Z,75.38
2022-09-05T19:08:05.304Z,76.84
2022-09-05T19:10:37.467Z,76.13
2022-09-05T19:13:44.569Z,76.47
2022-09-05T19:16:43.910Z,76.34
2022-09-05T19:19:44.325Z,78.54
2022-09-05T19:23:11.959Z,77.47
2022-09-05T19:25:45.459Z,78.39
2022-09-05T19:36:49.970Z,77.30
2022-09-05T19:37:09.250Z,78.85
2022-09-05T19:37:12.706Z,79.14
2022-09-05T19:37:37.489Z,81.51
2022-09-05T19:47:28.265Z,82.14
2022-09-05T19:47:35.923Z,81.73
2022-09-05T19:47:56.130Z,82.26
2022-09-05T19:49:55.556Z,82.47
2022-09-05T19:52:29.874Z,79.20
2022-09-05T19:55:28.760Z,82.33
2022-09-05T19:58:19.742Z,82.49
2022-09-05T20:01:03.054Z,83.19
2022-09-05T20:03:39.341Z,83.41
2022-09-05T20:06:28.880Z,83.77
2022-09-05T20:09:14.408Z,82.65
2022-09-05T20:11:48.846Z,84.27
2022-09-05T20:14:31.194Z,85.12
2022-09-05T20:17:18.415Z,84.85
2022-09-05T20:19:47.024Z,84.46
2022-09-05T20:22:47.014Z,84.77
2022-09-05T20:25:35.869Z,80.69
2022-09-05T20:28:45.809Z,82.29
2022-09-05T20:31:27.264Z,77.95
2022-09-05T20:34:11.961Z,78.25
2022-09-05T20:43:11.255Z,80.63
2022-09-05T20:43:32.031Z,80.94
2022-09-05T20:43:35.226Z,81.22
2022-09-05T20:45:43.722Z,83.47
2022-09-05T20:54:07.983Z,82.29
2022-09-05T20:54:22.168Z,82.07
2022-09-05T20:54:31.937Z,81.08
2022-09-05T20:57:23.462Z,81.65
2022-09-05T20:59:53.543Z,82.08
2022-09-05T21:02:32.502Z,82.08
2022-09-05T21:05:20.139Z,83.92
2022-09-05T21:08:19.769Z,85.37
2022-09-05T21:11:03.739Z,83.15
2022-09-05T21:13:33.978Z,84.95
2022-09-05T21:16:08.127Z,86.74
2022-09-05T21:18:45.287Z,86.08
2022-09-05T21:21:45.200Z,85.66
2022-09-05T21:24:27.582Z,86.11
2022-09-05T21:27:13.058Z,86.04
2022-09-05T21:29:46.879Z,85.73
2022-09-05T21:32:41.142Z,85.12
2022-09-05T21:35:34.279Z,85.26
2022-09-05T21:38:07.418Z,84.78
2022-09-05T21:40:35.688Z,84.54
2022-09-05T21:45:43.392Z,84.83
2022-09-05T21:47:41.632Z,84.59
2022-09-05T21:48:56.639Z,85.32
2022-09-05T21:51:26.693Z,82.66
2022-09-05T21:59:21.534Z,84.33
2022-09-05T21:59:25.568Z,81.91
2022-09-05T21:59:55.707Z,83.67
2022-09-05T22:02:28.884Z,85.79
2022-09-05T22:05:03.139Z,87.07
2022-09-05T22:07:36.006Z,87.22
2022-09-05T22:10:06.331Z,84.90
2022-09-05T22:12:39.363Z,85.87
2022-09-05T22:15:27.739Z,86.54
2022-09-05T22:18:16.295Z,86.50
2022-09-05T22:21:01.345Z,86.71
2022-09-05T22:23:37.615Z,85.55
2022-09-05T22:26:06.090Z,86.26
2022-09-05T22:28:38.607Z,85.40
2022-09-05T22:31:07.120Z,84.84
2022-09-05T22:33:38.202Z,83.69
2022-09-05T22:36:12.825Z,82.82
2022-09-05T22:38:44.079Z,82.60
2022-09-05T22:41:13.107Z,82.48
2022-09-05T22:43:46.599Z,82.31
2022-09-05T22:46:15.233Z,81.68
2022-09-05T22:48:43.525Z,81.33
2022-09-05T22:51:11.851Z,81.21
2022-09-05T22:53:39.939Z,81.88
2022-09-05T22:56:09.450Z,81.78
2022-09-05T22:58:45.328Z,80.36
2022-09-05T23:01:13.450Z,79.13
2022-09-05T23:03:52.921Z,79.76
2022-09-05T23:06:21.586Z,80.00
2022-09-05T23:08:58.647Z,78.88
2022-09-05T23:11:31.544Z,78.48
2022-09-05T23:14:02.874Z,78.67
2022-09-05T23:16:31.027Z,77.82
2022-09-05T23:19:02.753Z,75.69
2022-09-05T23:21:32.015Z,75.34
2022-09-05T23:24:07.738Z,75.23
2022-09-05T23:26:36.874Z,74.04
2022-09-05T23:29:06.015Z,72.20
2022-09-05T23:31:37.235Z,71.93
2022-09-05T23:34:05.878Z,72.10
2022-09-05T23:36:34.131Z,72.05
2022-09-05T23:39:04.751Z,71.76
2022-09-05T23:41:36.607Z,72.08
2022-09-05T23:44:08.910Z,71.99
2022-09-05T23:46:38.270Z,72.39
2022-09-05T23:49:08.473Z,72.95
2022-09-05T23:51:43.227Z,72.88
2022-09-05T23:54:11.198Z,73.10
2022-09-05T23:56:39.282Z,73.43
2022-09-05T23:59:08.375Z,73.27
